Historyczne dane pomiarowe

Dodano dane terminowe – wersja testowa.

Dane z okresu 1951-2019

Wersja bazy: 1.34 [2019-03-16, lista zmian], aktualizacja planowana na 2019-04-15

Dane meteo z obszaru Polski uzyskane na podstawie danych udostępnionych przez Instytut Meteorologii i Gospodarki Wodnej – Państwowy Instytut Badawczy.

 

Wybierz Datę:    

       

TemperaturaWilgotnośćWiatrCiśnienieOpadyŚniegCzas trwania zjawisk
 Stacja t tx tn tng RH VA  wxwx mslp ppp RRR   cm mm wxwxwxwxwxwxwx
1987-08-14 14.3 20.0 7.9 5.0 82.5- 3.3 3.7---- 0.0------------
1987-08-13 9.9 16.4 4.0 2.5 88.5- 6.0 4.3---- 0.0------------
1987-08-12 11.4 18.5 5.4 4.0 84.3- 5.3 1.7---- 0.0------------
1987-08-11 11.8 18.5 8.4 8.0 94.3- 8.0 2.3---- 0.0------------
1987-08-10 12.2 18.0 8.9 7.0 88.0- 8.0 2.3---- 12.0------------
1987-08-09 15.2 21.5 5.4 4.0 75.0- 2.7 3.3---- 0.0------------
1987-08-08 12.1 18.0 7.9 6.0 85.8- 3.7 1.7---- 0.0------------
1987-08-07 10.6 16.0 4.0 1.0 85.8- 4.3 2.0---- 0.0------------
1987-08-06 10.0 14.5 7.9 8.0 91.8- 8.0 2.7---- 16.0------------
1987-08-05 12.7 18.0 10.9 10.0 86.8- 7.0 2.0---- 6.0------------
1987-08-04 12.9 20.0 8.4 6.5 91.8- 6.7 3.3---- 7.0------------
1987-08-03 13.8 20.0 8.4 6.0 85.3- 5.7 3.0---- 0.0------------
1987-08-02 13.1 16.5 11.0 12.0 87.0- 7.0 3.0---- 5.0------------
1987-08-01 14.7 22.0 11.9 11.5 89.3- 5.7 1.7---- 0.4------------
1987-07-31 14.7 24.5 8.4 7.0 87.5- 6.7 3.7---- 11.1------------
1987-07-30 14.5 21.4 7.9 6.0 80.0- 4.0 3.3---- 0.0------------
1987-07-29 12.1 17.5 9.4 8.0 91.0- 4.0 2.0---- 0.0------------
1987-07-28 12.5 15.5 8.4 7.0 79.3- 8.0 4.3---- 2.0------------
1987-07-27 11.5 18.0 8.9 8.5 83.8- 4.3 4.3---- 0.0------------
1987-07-26 15.7 21.0 11.4 13.0 92.8- 7.0 2.3---- 12.0------------
1987-07-25 19.4 27.0 14.5 13.5 78.0- 6.7 3.0---- 12.2------------
1987-07-24 20.8 29.0 15.0 14.0 82.3- 5.0 5.7---- 9.2------------
1987-07-23 20.0 27.5 14.0 11.5 88.8- 4.0 0.7---- 0.0------------
1987-07-22 20.8 27.0 13.5 11.0 74.3- 3.0 3.0---- 0.0------------
1987-07-21 20.9 29.0 10.9 11.0 84.0- 4.7 2.0---- 0.0------------
1987-07-20 22.7 31.5 15.5 13.0 81.8- 2.7 1.7---- 1.0------------
1987-07-19 21.3 30.5 15.2 12.5 78.5- 1.7 3.0---- 0.0------------
1987-07-18 20.7 28.5 15.0 12.5 87.0- 5.3 1.3---- 0.0------------
1987-07-17 18.8 28.5 12.6 11.0 84.0- 4.7 5.3---- 2.0------------
1987-07-16 17.6 27.0 9.9 8.0 78.3- 2.7 3.0---- 0.0------------
1987-07-15 15.4 22.5 5.3 13.0 75.0- 0.7 2.3---- 0.0------------
1987-07-14 16.4 20.5 14.0 15.0 67.8- 2.0 4.7---- 0.0------------
1987-07-13 18.8 23.0 14.0 13.0 88.0- 7.0 2.7---- 0.0------------
1987-07-12 20.3 25.5 9.4 7.5 62.5- 2.0 9.3---- 3.0------------
1987-07-11 14.4 23.0 5.9 5.0 71.8- 0.3 1.7---- 0.0------------
1987-07-10 14.6 18.5 12.6 12.5 83.0- 4.0 1.7---- 0.0------------
1987-07-09 18.8 26.5 11.4 9.0 79.8- 2.7 5.3---- 11.0------------
1987-07-08 18.3 25.5 7.4 5.0 65.0- 0.0 2.3---- 0.0------------
1987-07-07 14.2 26.0 5.4 4.0 72.5- 0.0 1.0---- 0.0------------
1987-07-06 15.7 20.0 7.9 6.0 73.8- 1.0 4.3---- 0.0------------
1987-07-05 13.5 19.5 9.4 7.5 90.0- 6.0 2.7---- 2.0------------
1987-07-04 17.9 22.5 15.0 15.0 73.5- 4.7 3.3---- 0.0------------
1987-07-03 18.6 21.5 16.0 16.0 84.0- 7.0 3.3---- 0.0------------
1987-07-02 20.5 26.0 15.0 13.0 88.0- 5.3 3.7---- 0.1------------
1987-07-01 21.6 29.0 15.0 13.0 81.5- 0.3 2.0---- 0.0------------
1987-06-30 20.7 28.0 11.4 10.5 78.8- 0.7 1.3---- 0.0------------
1987-06-29 17.5 24.0 12.4 11.0 83.5- 0.7 1.3---- 0.0------------
1987-06-28 17.9 24.0 13.0 10.5 88.5- 4.7 1.7---- 0.0------------
1987-06-27 17.2 24.5 9.9 7.0 82.3- 2.7 1.7---- 0.0------------
1987-06-26 14.7 22.0 6.4 4.5 80.0- 1.0 2.7---- 0.0------------
1987-06-25 13.5 16.5 10.4 9.5 88.0- 8.0 2.7---- 6.0------------
1987-06-24 13.9 19.0 9.9 8.2 92.3- 8.0 1.3---- 9.0------------
1987-06-23 14.1 22.0 8.9 10.0 91.0- 5.3 1.7---- 0.0------------
1987-06-22 14.7 22.0 8.9 7.0 87.8- 4.3 2.7---- 16.0------------
1987-06-21 14.5 21.5 11.9 5.0 94.0- 4.0 2.3---- 8.5------------
1987-06-20 12.7 22.0 4.0 2.5 84.3- 2.3 3.0---- 0.0------------
1987-06-19 10.0 16.0 5.4 3.0 89.0- 4.0 1.3---- 1.4------------
1987-06-18 9.6 17.0 4.2 1.5 85.5- 3.7 2.0---- 5.2------------
1987-06-17 10.0 13.0 8.4 9.0 94.0- 6.7 0.7---- 8.0------------
1987-06-16 18.2 24.5 10.9 12.0 74.0- 5.7 5.3---- 28.0------------
479.3 ms

 

Źródłem pochodzenia danych jest Instytut Meteorologii i Gospodarki Wodnej – Państwowy Instytut Badawczy. Dane Instytutu Meteorologii i Gospodarki Wodnej – Państwowego Instytutu Badawczego zostały przetworzone.

Dane źródłowe można odnaleźć na stronie https://dane.imgw.pl